createdAt,value
2017-06-25T00:00:32.616Z,0
2017-06-25T00:01:13.120Z,0
2017-06-25T00:01:53.551Z,0
2017-06-25T00:02:34.012Z,0
2017-06-25T00:03:14.467Z,0
2017-06-25T00:03:54.926Z,0
2017-06-25T00:04:35.378Z,0
2017-06-25T00:05:15.836Z,0
2017-06-25T00:05:56.295Z,0
2017-06-25T00:06:36.748Z,0
2017-06-25T00:07:17.210Z,0
2017-06-25T00:07:57.662Z,0
2017-06-25T00:08:38.120Z,0
2017-06-25T00:09:18.590Z,0
2017-06-25T00:09:59.049Z,0
2017-06-25T00:10:39.506Z,0
2017-06-25T00:11:19.963Z,0
2017-06-25T00:12:00.415Z,0
2017-06-25T00:12:40.884Z,0
2017-06-25T00:13:21.341Z,0
2017-06-25T00:14:01.803Z,0
2017-06-25T00:14:42.282Z,0
2017-06-25T00:15:22.731Z,0
2017-06-25T00:16:03.194Z,0
2017-06-25T00:16:43.652Z,0
2017-06-25T00:17:24.119Z,0
2017-06-25T00:18:04.576Z,0
2017-06-25T00:18:45.024Z,0
2017-06-25T00:19:25.487Z,0
2017-06-25T00:20:05.958Z,0
2017-06-25T00:20:46.414Z,0
2017-06-25T00:21:26.875Z,0
2017-06-25T00:22:07.337Z,0
2017-06-25T00:22:47.807Z,0
2017-06-25T00:23:28.279Z,0
2017-06-25T00:24:08.724Z,0
2017-06-25T00:24:49.184Z,0
2017-06-25T00:25:29.640Z,0
2017-06-25T00:26:10.107Z,0
2017-06-25T00:26:50.544Z,0
2017-06-25T00:27:31.018Z,0
2017-06-25T00:28:11.479Z,0
2017-06-25T00:28:51.950Z,0
2017-06-25T00:29:32.423Z,0
2017-06-25T00:30:12.881Z,0
2017-06-25T00:30:53.339Z,0
2017-06-25T00:31:33.790Z,0
2017-06-25T00:32:14.248Z,0
2017-06-25T00:32:54.716Z,0
2017-06-25T00:33:35.233Z,0
2017-06-25T00:34:15.683Z,0
2017-06-25T00:34:56.138Z,0
2017-06-25T00:35:36.695Z,0
2017-06-25T00:36:17.175Z,0
2017-06-25T00:36:57.623Z,0
2017-06-25T00:37:38.087Z,0
2017-06-25T00:38:18.525Z,0
2017-06-25T00:38:58.997Z,0
2017-06-25T00:39:39.455Z,0
2017-06-25T00:40:19.926Z,0
2017-06-25T00:41:00.384Z,0
2017-06-25T00:41:40.843Z,0
2017-06-25T00:42:21.296Z,0
2017-06-25T00:43:01.765Z,0
2017-06-25T00:43:42.224Z,0
2017-06-25T00:44:22.678Z,0
2017-06-25T00:45:03.132Z,0
2017-06-25T00:45:43.583Z,0
2017-06-25T00:46:24.016Z,0
2017-06-25T00:47:04.486Z,0
2017-06-25T00:47:44.938Z,0
2017-06-25T00:48:25.389Z,0
2017-06-25T00:49:05.849Z,0
2017-06-25T00:49:46.305Z,0
2017-06-25T00:50:26.756Z,0
2017-06-25T00:51:07.238Z,0
2017-06-25T00:51:47.710Z,0
2017-06-25T00:52:28.153Z,0
2017-06-25T00:53:08.619Z,0
2017-06-25T00:53:49.084Z,0
2017-06-25T00:54:29.536Z,0
2017-06-25T00:55:09.993Z,0
2017-06-25T00:55:50.454Z,0
2017-06-25T00:56:30.917Z,0
2017-06-25T00:57:11.393Z,0
2017-06-25T00:57:51.838Z,0
2017-06-25T00:58:32.309Z,0
2017-06-25T00:59:12.762Z,0
2017-06-25T00:59:53.224Z,0
2017-06-25T01:00:33.682Z,0
2017-06-25T01:01:14.141Z,0
2017-06-25T01:01:54.599Z,0
2017-06-25T01:02:35.061Z,0
2017-06-25T01:03:15.515Z,0
2017-06-25T01:03:55.971Z,0
2017-06-25T01:04:36.442Z,0
2017-06-25T01:05:16.908Z,0
2017-06-25T01:05:57.371Z,0
2017-06-25T01:06:37.839Z,0
2017-06-25T01:07:18.296Z,0
2017-06-25T01:07:58.752Z,0
2017-06-25T01:08:39.213Z,0
2017-06-25T01:09:19.675Z,0
2017-06-25T01:10:00.131Z,0
2017-06-25T01:10:40.591Z,0
2017-06-25T01:11:21.048Z,0
2017-06-25T01:12:01.506Z,0
2017-06-25T01:12:41.961Z,0
2017-06-25T01:13:22.420Z,0
2017-06-25T01:14:02.874Z,0
2017-06-25T01:14:43.325Z,0
2017-06-25T01:15:23.779Z,0
2017-06-25T01:16:04.240Z,0
2017-06-25T01:16:44.698Z,0
2017-06-25T01:17:25.157Z,0
2017-06-25T01:18:05.614Z,0
2017-06-25T01:18:46.078Z,0
2017-06-25T01:19:26.543Z,0
2017-06-25T01:20:07.007Z,0
2017-06-25T01:20:47.464Z,0
2017-06-25T01:21:27.919Z,0
2017-06-25T01:22:08.377Z,0
2017-06-25T01:22:48.826Z,0
2017-06-25T01:23:29.297Z,0
2017-06-25T01:24:09.733Z,0
2017-06-25T01:24:50.199Z,0
2017-06-25T01:25:30.654Z,0
2017-06-25T01:26:11.110Z,0
2017-06-25T01:26:51.572Z,0
2017-06-25T01:27:32.034Z,0
2017-06-25T01:28:12.497Z,0
2017-06-25T01:28:52.952Z,0
2017-06-25T01:29:33.419Z,0
2017-06-25T01:30:13.886Z,0
2017-06-25T01:30:54.349Z,0
2017-06-25T01:31:34.804Z,0
2017-06-25T01:32:15.264Z,0
2017-06-25T01:32:55.719Z,0
2017-06-25T01:33:36.177Z,0
2017-06-25T01:34:16.636Z,0
2017-06-25T01:34:57.096Z,0
2017-06-25T01:35:37.556Z,0
2017-06-25T01:36:18.004Z,0
2017-06-25T01:36:58.465Z,0
2017-06-25T01:37:38.919Z,0
2017-06-25T01:38:19.377Z,0
2017-06-25T01:38:59.833Z,0
2017-06-25T01:39:40.302Z,0
2017-06-25T01:40:20.762Z,0
2017-06-25T01:41:01.221Z,0
2017-06-25T01:41:41.679Z,0
2017-06-25T01:42:22.136Z,0
2017-06-25T01:43:02.596Z,0
2017-06-25T01:43:43.057Z,0
2017-06-25T01:44:23.516Z,0
2017-06-25T01:45:03.982Z,0
2017-06-25T01:45:44.437Z,0
2017-06-25T01:46:24.901Z,0
2017-06-25T01:47:05.363Z,0
2017-06-25T01:47:45.821Z,0
2017-06-25T01:48:26.293Z,0
2017-06-25T01:49:06.784Z,0
2017-06-25T01:49:47.209Z,0
2017-06-25T01:50:27.673Z,0
2017-06-25T01:51:08.137Z,0
2017-06-25T01:51:48.595Z,0
2017-06-25T01:52:29.071Z,0
2017-06-25T01:53:10.195Z,0
2017-06-25T01:53:50.654Z,0
2017-06-25T01:54:31.104Z,0
2017-06-25T01:55:11.569Z,0
2017-06-25T01:55:52.029Z,0
2017-06-25T01:56:32.484Z,0
2017-06-25T01:57:12.930Z,0
2017-06-25T01:57:53.404Z,0
2017-06-25T01:58:33.861Z,0
2017-06-25T01:59:14.316Z,0
2017-06-25T01:59:54.769Z,0
2017-06-25T02:00:35.227Z,0
2017-06-25T02:01:15.688Z,0
2017-06-25T02:03:13.566Z,0
2017-06-25T02:03:54.026Z,0
2017-06-25T02:04:34.486Z,0
2017-06-25T02:05:14.930Z,0
2017-06-25T02:05:55.383Z,0
2017-06-25T02:06:35.836Z,0
2017-06-25T02:07:16.293Z,0
2017-06-25T02:07:56.751Z,0
2017-06-25T02:08:37.209Z,0
2017-06-25T02:09:17.671Z,0
2017-06-25T02:09:58.127Z,0
2017-06-25T02:10:38.592Z,0
2017-06-25T02:11:19.045Z,0
2017-06-25T02:11:59.495Z,0
2017-06-25T02:12:39.953Z,0
2017-06-25T02:13:20.399Z,0
2017-06-25T02:14:00.858Z,0
2017-06-25T02:14:41.314Z,0
2017-06-25T02:15:21.806Z,0
2017-06-25T02:16:02.276Z,0
2017-06-25T02:16:42.733Z,0
2017-06-25T02:17:23.196Z,0
2017-06-25T02:18:03.659Z,0
2017-06-25T02:18:44.106Z,0
2017-06-25T02:19:24.588Z,0
2017-06-25T02:20:05.038Z,0
2017-06-25T02:20:45.507Z,0
2017-06-25T02:21:25.961Z,0
2017-06-25T02:22:06.419Z,0
2017-06-25T02:22:46.880Z,0
2017-06-25T02:23:27.330Z,0
2017-06-25T02:24:07.786Z,0
2017-06-25T02:24:48.246Z,0
2017-06-25T02:25:28.703Z,0
2017-06-25T02:26:09.159Z,0
2017-06-25T02:26:49.613Z,0
2017-06-25T02:27:30.067Z,0
2017-06-25T02:28:10.525Z,0
2017-06-25T02:28:50.981Z,0
2017-06-25T02:29:31.443Z,0
2017-06-25T02:30:11.902Z,0
2017-06-25T02:30:52.358Z,0
2017-06-25T02:31:32.816Z,0
2017-06-25T02:32:13.275Z,0
2017-06-25T02:32:53.733Z,0
2017-06-25T02:33:34.274Z,0
2017-06-25T02:34:14.700Z,0
2017-06-25T02:34:55.154Z,0
2017-06-25T02:35:35.615Z,0
2017-06-25T02:36:16.064Z,0
2017-06-25T02:36:56.508Z,0
2017-06-25T02:37:36.964Z,0
2017-06-25T02:38:17.428Z,0
2017-06-25T02:40:50.541Z,0
2017-06-25T02:41:30.998Z,0
2017-06-25T02:42:11.459Z,0
2017-06-25T02:42:51.902Z,0
2017-06-25T02:43:32.352Z,0
2017-06-25T02:44:12.806Z,0
2017-06-25T02:44:53.261Z,0
2017-06-25T02:45:33.732Z,0
2017-06-25T02:46:14.186Z,0
2017-06-25T02:46:54.645Z,0
2017-06-25T02:47:35.103Z,0
2017-06-25T02:48:15.581Z,0
2017-06-25T02:48:56.031Z,0
2017-06-25T02:49:36.478Z,0
2017-06-25T02:50:16.935Z,0
2017-06-25T02:50:57.384Z,0
2017-06-25T02:51:37.841Z,0
2017-06-25T02:52:18.297Z,0
2017-06-25T02:52:58.755Z,0
2017-06-25T02:53:39.231Z,0
2017-06-25T02:54:19.687Z,0
2017-06-25T02:55:00.137Z,0
2017-06-25T02:55:40.590Z,0
2017-06-25T02:56:21.056Z,0
2017-06-25T02:57:01.510Z,0
2017-06-25T02:57:41.965Z,0
2017-06-25T02:58:22.424Z,4
2017-06-25T02:59:02.884Z,4
2017-06-25T02:59:43.343Z,0
2017-06-25T03:00:23.803Z,0
2017-06-25T03:01:04.254Z,4
2017-06-25T03:01:44.713Z,4
2017-06-25T03:02:25.175Z,0
2017-06-25T03:03:05.638Z,0
2017-06-25T03:03:46.091Z,4
2017-06-25T03:04:26.541Z,4
2017-06-25T03:05:07.004Z,4
2017-06-25T03:05:47.460Z,4
2017-06-25T03:06:27.916Z,4
2017-06-25T03:07:08.375Z,4
2017-06-25T03:07:48.820Z,4
2017-06-25T03:08:29.278Z,4
2017-06-25T03:09:09.737Z,4
2017-06-25T03:09:50.194Z,4
2017-06-25T03:10:30.659Z,4
2017-06-25T03:11:11.117Z,4
2017-06-25T03:11:51.573Z,4
2017-06-25T03:12:32.038Z,4
2017-06-25T03:13:12.480Z,4
2017-06-25T03:13:52.934Z,4
2017-06-25T03:14:33.389Z,4
2017-06-25T03:15:13.848Z,4
2017-06-25T03:15:54.282Z,4
2017-06-25T03:16:34.726Z,4
2017-06-25T03:17:15.197Z,4
2017-06-25T03:17:55.642Z,4
2017-06-25T03:18:36.080Z,8
2017-06-25T03:19:16.539Z,8
2017-06-25T03:19:56.998Z,8
2017-06-25T03:20:37.471Z,4
2017-06-25T03:21:17.934Z,8
2017-06-25T03:21:58.386Z,8
2017-06-25T03:22:38.837Z,8
2017-06-25T03:23:19.316Z,8
2017-06-25T03:23:59.751Z,8
2017-06-25T03:24:40.215Z,12
2017-06-25T03:25:20.658Z,12
2017-06-25T03:26:01.112Z,12
2017-06-25T03:26:41.561Z,16
2017-06-25T03:27:22.008Z,12
2017-06-25T03:28:02.466Z,16
2017-06-25T03:28:42.914Z,16
2017-06-25T03:29:23.365Z,16
2017-06-25T03:30:03.820Z,16
2017-06-25T03:30:44.274Z,20
2017-06-25T03:31:24.739Z,16
2017-06-25T03:32:05.195Z,16
2017-06-25T03:32:45.654Z,16
2017-06-25T03:33:26.112Z,20
2017-06-25T03:34:06.572Z,16
2017-06-25T03:34:47.025Z,16
2017-06-25T03:35:27.482Z,20
2017-06-25T03:36:07.939Z,20
2017-06-25T03:36:48.394Z,20
2017-06-25T03:37:28.853Z,20
2017-06-25T03:38:09.315Z,20
2017-06-25T03:38:49.776Z,20
2017-06-25T03:39:30.235Z,24
2017-06-25T03:40:10.692Z,20
2017-06-25T03:40:51.152Z,20
2017-06-25T03:41:31.602Z,24
2017-06-25T03:42:12.052Z,28
2017-06-25T03:42:52.506Z,28
2017-06-25T03:43:32.956Z,28
2017-06-25T03:44:13.419Z,28
2017-06-25T03:44:53.874Z,32
2017-06-25T03:45:34.327Z,36
2017-06-25T03:46:14.788Z,32
2017-06-25T03:46:55.251Z,32
2017-06-25T03:47:35.716Z,36
2017-06-25T03:48:16.172Z,36
2017-06-25T03:48:56.628Z,36
2017-06-25T03:49:37.085Z,36
2017-06-25T03:50:17.550Z,36
2017-06-25T03:50:58.002Z,36
2017-06-25T03:51:38.461Z,36
2017-06-25T03:52:18.909Z,40
2017-06-25T03:52:59.365Z,36
2017-06-25T03:53:39.824Z,40
2017-06-25T03:54:20.280Z,44
2017-06-25T03:55:00.735Z,40
2017-06-25T03:55:41.198Z,40
2017-06-25T03:56:21.658Z,48
2017-06-25T03:57:02.111Z,48
2017-06-25T03:57:42.567Z,48
2017-06-25T03:58:23.024Z,52
2017-06-25T03:59:03.480Z,52
2017-06-25T03:59:43.935Z,52
2017-06-25T04:00:24.407Z,52
2017-06-25T04:01:04.849Z,52
2017-06-25T04:01:45.299Z,56
2017-06-25T04:02:25.755Z,56
2017-06-25T04:03:06.204Z,56
2017-06-25T04:03:46.662Z,60
2017-06-25T04:04:27.130Z,60
2017-06-25T04:05:07.597Z,60
2017-06-25T04:05:48.039Z,60
2017-06-25T04:06:28.486Z,64
2017-06-25T04:07:08.942Z,64
2017-06-25T04:07:49.485Z,68
2017-06-25T04:08:29.934Z,72
2017-06-25T04:09:10.385Z,72
2017-06-25T04:09:50.838Z,72
2017-06-25T04:10:31.284Z,72
2017-06-25T04:11:11.746Z,76
2017-06-25T04:11:52.208Z,76
2017-06-25T04:12:32.661Z,80
2017-06-25T04:13:13.127Z,80
2017-06-25T04:13:53.583Z,84
2017-06-25T04:14:34.033Z,80
2017-06-25T04:15:14.522Z,84
2017-06-25T04:15:54.965Z,84
2017-06-25T04:16:35.425Z,88
2017-06-25T04:17:15.884Z,88
2017-06-25T04:17:56.335Z,88
2017-06-25T04:18:36.790Z,88
2017-06-25T04:19:17.249Z,88
2017-06-25T04:19:57.700Z,88
2017-06-25T04:20:38.143Z,92
2017-06-25T04:21:18.600Z,92
2017-06-25T04:21:59.054Z,92
2017-06-25T04:22:39.512Z,92
2017-06-25T04:23:19.969Z,92
2017-06-25T04:24:00.432Z,96
2017-06-25T04:24:40.893Z,96
2017-06-25T04:25:21.358Z,100
2017-06-25T04:26:01.816Z,100
2017-06-25T04:26:42.274Z,100
2017-06-25T04:27:22.704Z,104
2017-06-25T04:28:03.171Z,108
2017-06-25T04:28:43.628Z,112
2017-06-25T04:29:24.087Z,116
2017-06-25T04:30:04.545Z,132
2017-06-25T04:30:45.005Z,128
2017-06-25T04:31:25.475Z,136
2017-06-25T04:32:05.923Z,148
2017-06-25T04:32:46.373Z,160
2017-06-25T04:33:26.820Z,164
2017-06-25T04:34:07.273Z,176
2017-06-25T04:34:47.723Z,192
2017-06-25T04:35:28.185Z,204
2017-06-25T04:36:08.636Z,212
2017-06-25T04:36:49.098Z,224
2017-06-25T04:37:29.549Z,220
2017-06-25T04:38:10.004Z,244
2017-06-25T04:38:50.467Z,260
2017-06-25T04:39:30.929Z,272
2017-06-25T04:40:11.390Z,284
2017-06-25T04:40:51.848Z,296
2017-06-25T04:41:32.303Z,300
2017-06-25T04:42:12.750Z,308
2017-06-25T04:42:53.211Z,316
2017-06-25T04:43:33.674Z,320
2017-06-25T04:44:14.161Z,324
2017-06-25T04:44:54.601Z,332
2017-06-25T04:45:35.057Z,332
2017-06-25T04:46:15.512Z,336
2017-06-25T04:46:55.971Z,340
2017-06-25T04:47:36.433Z,344
2017-06-25T04:48:16.890Z,348
2017-06-25T04:48:57.349Z,348
2017-06-25T04:49:37.806Z,360
2017-06-25T04:50:18.263Z,364
2017-06-25T04:50:58.720Z,360
2017-06-25T04:51:39.179Z,356
2017-06-25T04:52:19.638Z,364
2017-06-25T04:53:00.106Z,376
2017-06-25T04:53:40.566Z,368
2017-06-25T04:54:21.017Z,380
2017-06-25T04:55:01.471Z,376
2017-06-25T04:55:41.929Z,368
2017-06-25T04:56:22.387Z,356
2017-06-25T04:57:02.838Z,352
2017-06-25T04:57:43.294Z,340
2017-06-25T04:58:23.754Z,368
2017-06-25T04:59:04.211Z,368
2017-06-25T04:59:44.663Z,352
2017-06-25T05:00:25.118Z,332
2017-06-25T05:01:05.571Z,336
2017-06-25T05:01:46.035Z,292
2017-06-25T05:02:26.489Z,260
2017-06-25T05:03:06.944Z,280
2017-06-25T05:03:47.397Z,304
2017-06-25T05:04:27.849Z,344
2017-06-25T05:05:08.303Z,376
2017-06-25T05:05:48.763Z,352
2017-06-25T05:06:29.211Z,312
2017-06-25T05:07:09.666Z,276
2017-06-25T05:07:50.125Z,308
2017-06-25T05:08:30.575Z,352
2017-06-25T05:09:11.034Z,384
2017-06-25T05:09:51.502Z,380
2017-06-25T05:10:31.959Z,384
2017-06-25T05:11:12.425Z,336
2017-06-25T05:11:52.882Z,352
2017-06-25T05:12:33.334Z,360
2017-06-25T05:13:15.712Z,384
2017-06-25T05:13:56.164Z,392
2017-06-25T05:14:36.634Z,360
2017-06-25T05:15:17.074Z,368
2017-06-25T05:15:57.530Z,344
2017-06-25T05:16:37.980Z,380
2017-06-25T05:17:18.434Z,448
2017-06-25T05:17:58.885Z,392
2017-06-25T05:18:39.343Z,368
2017-06-25T05:19:19.806Z,336
2017-06-25T05:20:00.255Z,336
2017-06-25T05:20:40.710Z,384
2017-06-25T05:21:21.166Z,376
2017-06-25T05:22:01.623Z,436
2017-06-25T05:22:42.083Z,520
2017-06-25T05:23:22.552Z,512
2017-06-25T05:24:03.015Z,504
2017-06-25T05:24:43.472Z,484
2017-06-25T05:25:23.932Z,496
2017-06-25T05:26:04.396Z,512
2017-06-25T05:26:44.856Z,516
2017-06-25T05:27:25.312Z,520
2017-06-25T05:28:06.083Z,496
2017-06-25T05:28:46.566Z,500
2017-06-25T05:29:26.986Z,412
2017-06-25T05:30:07.438Z,368
2017-06-25T05:30:47.897Z,476
2017-06-25T05:31:28.362Z,508
2017-06-25T05:32:08.824Z,540
2017-06-25T05:32:49.292Z,520
2017-06-25T05:33:29.749Z,516
2017-06-25T05:34:10.208Z,496
2017-06-25T05:34:50.672Z,520
2017-06-25T05:35:31.129Z,540
2017-06-25T05:36:11.577Z,548
2017-06-25T05:36:52.411Z,496
2017-06-25T05:37:32.876Z,376
2017-06-25T05:38:13.332Z,352
2017-06-25T05:38:53.796Z,360
2017-06-25T05:39:34.237Z,376
2017-06-25T05:40:14.697Z,376
2017-06-25T05:40:55.154Z,380
2017-06-25T05:41:35.616Z,392
2017-06-25T05:42:16.071Z,468
2017-06-25T05:42:56.529Z,400
2017-06-25T05:43:36.977Z,380
2017-06-25T05:44:17.435Z,380
2017-06-25T05:44:57.893Z,384
2017-06-25T05:45:38.369Z,388
2017-06-25T05:46:18.812Z,392
2017-06-25T05:46:59.292Z,396
2017-06-25T05:47:39.755Z,400
2017-06-25T05:48:20.219Z,412
2017-06-25T05:49:00.678Z,424
2017-06-25T05:49:41.133Z,432
2017-06-25T05:50:21.590Z,440
2017-06-25T05:51:02.041Z,420
2017-06-25T05:51:42.499Z,412
2017-06-25T05:52:22.953Z,400
2017-06-25T05:53:03.417Z,388
2017-06-25T05:53:43.871Z,372
2017-06-25T05:54:24.335Z,364
2017-06-25T05:55:04.783Z,356
2017-06-25T05:55:45.241Z,352
2017-06-25T05:56:25.701Z,352
2017-06-25T05:57:06.160Z,356
2017-06-25T05:57:46.617Z,364
2017-06-25T05:58:27.071Z,368
2017-06-25T05:59:07.523Z,376
2017-06-25T05:59:47.974Z,380
2017-06-25T06:00:28.430Z,376
2017-06-25T06:01:08.881Z,384
2017-06-25T06:01:49.348Z,388
2017-06-25T06:02:29.814Z,384
2017-06-25T06:03:10.279Z,380
2017-06-25T06:03:50.743Z,448
2017-06-25T06:04:31.197Z,436
2017-06-25T06:05:11.648Z,396
2017-06-25T06:05:52.101Z,408
2017-06-25T06:06:32.560Z,420
2017-06-25T06:07:13.020Z,440
2017-06-25T06:07:53.482Z,456
2017-06-25T06:08:33.952Z,476
2017-06-25T06:09:14.413Z,572
2017-06-25T06:09:54.867Z,576
2017-06-25T06:10:35.329Z,636
2017-06-25T06:11:15.800Z,724
2017-06-25T06:11:56.238Z,680
2017-06-25T06:12:36.674Z,580
2017-06-25T06:13:17.130Z,536
2017-06-25T06:13:57.586Z,556
2017-06-25T06:14:38.030Z,552
2017-06-25T06:15:18.480Z,532
2017-06-25T06:15:58.948Z,516
2017-06-25T06:16:39.395Z,488
2017-06-25T06:17:19.870Z,520
2017-06-25T06:18:00.325Z,380
2017-06-25T06:18:40.787Z,328
2017-06-25T06:19:21.246Z,296
2017-06-25T06:20:01.705Z,280
2017-06-25T06:20:42.160Z,276
2017-06-25T06:21:22.614Z,276
2017-06-25T06:22:03.073Z,288
2017-06-25T06:22:43.520Z,292
2017-06-25T06:23:23.987Z,292
2017-06-25T06:24:04.439Z,284
2017-06-25T06:24:44.900Z,268
2017-06-25T06:25:25.410Z,252
2017-06-25T06:26:05.869Z,236
2017-06-25T06:26:46.318Z,236
2017-06-25T06:27:26.767Z,232
2017-06-25T06:28:07.220Z,236
2017-06-25T06:28:47.694Z,240
2017-06-25T06:29:28.158Z,244
2017-06-25T06:30:08.628Z,240
2017-06-25T06:30:49.083Z,240
2017-06-25T06:31:29.547Z,236
2017-06-25T06:32:10.006Z,248
2017-06-25T06:32:50.526Z,252
2017-06-25T06:33:30.983Z,260
2017-06-25T06:34:11.438Z,264
2017-06-25T06:34:51.885Z,268
2017-06-25T06:35:32.342Z,276
2017-06-25T06:36:12.795Z,276
2017-06-25T06:36:53.228Z,284
2017-06-25T06:37:33.679Z,292
2017-06-25T06:38:14.131Z,304
2017-06-25T06:38:54.597Z,316
2017-06-25T06:39:35.033Z,328
2017-06-25T06:40:15.472Z,332
2017-06-25T06:40:55.931Z,344
2017-06-25T06:41:36.389Z,348
2017-06-25T06:42:16.895Z,344
2017-06-25T06:42:57.311Z,360
2017-06-25T06:43:37.766Z,364
2017-06-25T06:44:18.221Z,364
2017-06-25T06:44:58.678Z,356
2017-06-25T06:45:39.141Z,340
2017-06-25T06:46:19.593Z,320
2017-06-25T06:47:00.049Z,308
2017-06-25T06:47:40.514Z,304
2017-06-25T06:48:20.973Z,300
2017-06-25T06:49:01.426Z,300
2017-06-25T06:49:41.890Z,304
2017-06-25T06:50:22.357Z,308
2017-06-25T06:51:02.815Z,316
2017-06-25T06:51:43.276Z,332
2017-06-25T06:52:23.780Z,352
2017-06-25T06:53:04.242Z,360
2017-06-25T06:53:44.704Z,372
2017-06-25T06:54:25.171Z,376
2017-06-25T06:55:05.631Z,380
2017-06-25T06:55:46.089Z,380
2017-06-25T06:56:26.546Z,376
2017-06-25T06:57:06.990Z,368
2017-06-25T06:57:47.451Z,368
2017-06-25T06:58:27.905Z,372
2017-06-25T06:59:08.386Z,380
2017-06-25T06:59:48.850Z,400
2017-06-25T07:00:29.293Z,428
2017-06-25T07:01:09.767Z,452
2017-06-25T07:01:50.231Z,484
2017-06-25T07:02:30.724Z,520
2017-06-25T07:03:11.171Z,560
2017-06-25T07:03:51.628Z,592
2017-06-25T07:04:32.086Z,628
2017-06-25T07:05:12.543Z,668
2017-06-25T07:05:52.994Z,740
2017-06-25T07:06:33.445Z,1000
2017-06-25T07:07:13.917Z,856
2017-06-25T07:07:54.379Z,932
2017-06-25T07:08:34.840Z,900
2017-06-25T07:09:15.307Z,924
2017-06-25T07:09:55.767Z,840
2017-06-25T07:10:36.219Z,852
2017-06-25T07:11:16.663Z,812
2017-06-25T07:11:57.132Z,808
2017-06-25T07:12:37.586Z,800
2017-06-25T07:13:18.037Z,812
2017-06-25T07:13:58.492Z,840
2017-06-25T07:14:38.953Z,960
2017-06-25T07:15:19.565Z,884
2017-06-25T07:16:00.486Z,876
2017-06-25T07:16:41.072Z,968
2017-06-25T07:17:21.842Z,840
2017-06-25T07:18:02.308Z,844
2017-06-25T07:18:42.757Z,744
2017-06-25T07:19:23.217Z,1420
2017-06-25T07:20:03.669Z,1372
2017-06-25T07:20:44.138Z,1352
2017-06-25T07:21:24.592Z,1328
2017-06-25T07:22:05.047Z,1308
2017-06-25T07:22:45.504Z,1292
2017-06-25T07:23:25.964Z,1272
2017-06-25T07:24:06.421Z,1252
2017-06-25T07:24:46.885Z,1240
2017-06-25T07:25:27.339Z,1216
2017-06-25T07:26:07.799Z,1204
2017-06-25T07:26:48.258Z,1188
2017-06-25T07:27:28.727Z,1184
2017-06-25T07:28:09.185Z,1184
2017-06-25T07:28:49.636Z,1184
2017-06-25T07:29:30.103Z,1184
2017-06-25T07:30:10.559Z,1180
2017-06-25T07:30:51.016Z,1184
2017-06-25T07:31:31.483Z,1184
2017-06-25T07:32:11.942Z,1188
2017-06-25T07:32:52.391Z,1192
2017-06-25T07:33:32.855Z,1200
2017-06-25T07:34:13.305Z,1204
2017-06-25T07:34:53.768Z,1216
2017-06-25T07:35:34.228Z,1224
2017-06-25T07:36:14.674Z,1236
2017-06-25T07:36:55.155Z,1248
2017-06-25T07:37:35.592Z,1264
2017-06-25T07:38:16.071Z,1280
2017-06-25T07:38:56.526Z,1308
2017-06-25T07:39:37.002Z,1316
2017-06-25T07:40:17.461Z,1128
2017-06-25T07:40:57.918Z,812
2017-06-25T07:41:38.420Z,1212
2017-06-25T07:42:18.899Z,1320
2017-06-25T07:42:59.354Z,1532
2017-06-25T07:43:39.873Z,1420
2017-06-25T07:44:20.297Z,1580
2017-06-25T07:45:00.746Z,1584
2017-06-25T07:45:41.280Z,1584
2017-06-25T07:46:21.733Z,1564
2017-06-25T07:47:02.177Z,1544
2017-06-25T07:47:42.677Z,1520
2017-06-25T07:48:23.151Z,1508
2017-06-25T07:49:03.605Z,1500
2017-06-25T07:49:44.055Z,1500
2017-06-25T07:50:24.562Z,1500
2017-06-25T07:51:04.971Z,1504
2017-06-25T07:51:45.423Z,1508
2017-06-25T07:52:25.880Z,1516
2017-06-25T07:53:06.343Z,1516
2017-06-25T07:53:46.870Z,1520
2017-06-25T07:54:27.337Z,1528
2017-06-25T07:55:07.822Z,1532
2017-06-25T07:55:48.250Z,1532
2017-06-25T07:56:28.710Z,1532
2017-06-25T07:57:09.257Z,1536
2017-06-25T07:57:49.657Z,1544
2017-06-25T07:58:30.107Z,1552
2017-06-25T07:59:10.575Z,1564
2017-06-25T07:59:51.037Z,1576
2017-06-25T08:00:31.497Z,1588
2017-06-25T08:01:11.956Z,1588
2017-06-25T08:01:52.420Z,1592
2017-06-25T08:02:32.878Z,1592
2017-06-25T08:03:13.332Z,1588
2017-06-25T08:03:53.793Z,1600
2017-06-25T08:04:34.268Z,1604
2017-06-25T08:05:14.720Z,1604
2017-06-25T08:05:55.179Z,1624
2017-06-25T08:06:35.668Z,1644
2017-06-25T08:07:16.134Z,1648
2017-06-25T08:07:56.610Z,1652
2017-06-25T08:08:37.068Z,1656
2017-06-25T08:09:17.524Z,1672
2017-06-25T08:09:57.997Z,1684
2017-06-25T08:10:38.457Z,1688
2017-06-25T08:11:18.914Z,1696
2017-06-25T08:11:59.370Z,1700
2017-06-25T08:12:39.824Z,1692
2017-06-25T08:13:20.376Z,1688
2017-06-25T08:15:38.988Z,1700
2017-06-25T08:16:19.454Z,1708
2017-06-25T08:16:59.923Z,1712
2017-06-25T08:17:40.371Z,1720
2017-06-25T08:18:20.835Z,1724
2017-06-25T08:20:53.881Z,1740
2017-06-25T08:21:34.330Z,1748
2017-06-25T08:22:14.806Z,1748
2017-06-25T08:22:55.268Z,1756
2017-06-25T08:23:35.710Z,1768
2017-06-25T08:24:16.148Z,1760
2017-06-25T08:24:56.598Z,1772
2017-06-25T08:25:37.053Z,1780
2017-06-25T08:26:17.511Z,1792
2017-06-25T08:26:57.958Z,1796
2017-06-25T08:27:38.416Z,1808
2017-06-25T08:28:18.864Z,1812
2017-06-25T08:28:59.324Z,1816
2017-06-25T08:29:39.795Z,1820
2017-06-25T08:30:20.255Z,1836
2017-06-25T08:31:00.698Z,1836
2017-06-25T08:31:41.159Z,1840
2017-06-25T08:32:21.625Z,1844
2017-06-25T08:33:02.084Z,1852
2017-06-25T08:33:42.527Z,1872
2017-06-25T08:34:22.977Z,1876
2017-06-25T08:35:03.452Z,1880
2017-06-25T08:35:43.854Z,1884
2017-06-25T08:36:24.294Z,1880
2017-06-25T08:37:04.750Z,1864
2017-06-25T08:37:45.216Z,1912
2017-06-25T08:38:25.647Z,1924
2017-06-25T08:39:06.099Z,1924
2017-06-25T08:39:46.542Z,1932
2017-06-25T08:40:27.030Z,1940
2017-06-25T08:41:07.571Z,1956
2017-06-25T08:41:48.011Z,1940
2017-06-25T08:42:28.475Z,1972
2017-06-25T08:43:08.954Z,1996
2017-06-25T08:43:49.371Z,1992
2017-06-25T08:44:29.830Z,2004
2017-06-25T08:45:10.286Z,2024
2017-06-25T08:45:50.751Z,2024
2017-06-25T08:46:31.193Z,2040
2017-06-25T08:47:11.664Z,2048
2017-06-25T08:47:52.130Z,2052
2017-06-25T08:48:32.621Z,2088
2017-06-25T08:49:13.091Z,2108
2017-06-25T08:49:53.508Z,2108
2017-06-25T08:52:06.572Z,2120
2017-06-25T08:52:47.056Z,2108
2017-06-25T08:53:27.589Z,2104
2017-06-25T08:54:08.047Z,2168
2017-06-25T08:54:48.502Z,2204
2017-06-25T08:55:28.993Z,1996
2017-06-25T08:56:09.457Z,608
2017-06-25T08:56:49.912Z,652
2017-06-25T08:57:30.372Z,2116
2017-06-25T08:58:10.968Z,2304
2017-06-25T08:58:51.365Z,1816
2017-06-25T08:59:31.826Z,664
2017-06-25T09:00:12.290Z,668
2017-06-25T09:00:52.734Z,712
2017-06-25T09:01:33.186Z,2140
2017-06-25T09:02:13.722Z,2328
2017-06-25T09:02:54.147Z,2388
2017-06-25T09:03:34.648Z,2396
2017-06-25T09:04:15.104Z,2252
2017-06-25T09:04:55.553Z,864
2017-06-25T09:05:36.008Z,868
2017-06-25T09:06:16.467Z,1456
2017-06-25T09:06:56.923Z,856
2017-06-25T09:07:37.386Z,756
2017-06-25T09:08:17.854Z,728
2017-06-25T09:08:58.316Z,712
2017-06-25T09:09:38.773Z,672
2017-06-25T09:10:19.232Z,652
2017-06-25T09:10:59.689Z,636
2017-06-25T09:11:40.149Z,604
2017-06-25T09:12:20.624Z,616
2017-06-25T09:13:01.073Z,644
2017-06-25T09:13:41.541Z,2344
2017-06-25T09:14:22.012Z,2328
2017-06-25T09:15:02.469Z,2372
2017-06-25T09:15:42.927Z,2384
2017-06-25T09:16:23.380Z,2396
2017-06-25T09:17:03.858Z,2440
2017-06-25T09:17:44.318Z,2480
2017-06-25T09:18:24.754Z,2532
2017-06-25T09:19:05.231Z,1040
2017-06-25T09:19:45.684Z,1096
2017-06-25T09:20:26.149Z,2444
2017-06-25T09:21:06.612Z,1756
2017-06-25T09:21:47.059Z,1132
2017-06-25T09:22:27.525Z,988
2017-06-25T09:23:07.982Z,1028
2017-06-25T09:23:48.433Z,980
2017-06-25T09:24:28.889Z,960
2017-06-25T09:25:09.348Z,944
2017-06-25T09:25:49.814Z,916
2017-06-25T09:26:30.265Z,868
2017-06-25T09:27:10.695Z,828
2017-06-25T09:27:51.152Z,788
2017-06-25T09:28:31.617Z,764
2017-06-25T09:29:12.073Z,724
2017-06-25T09:29:52.529Z,672
2017-06-25T09:30:32.981Z,616
2017-06-25T09:31:13.447Z,568
2017-06-25T09:31:53.899Z,552
2017-06-25T09:32:34.361Z,544
2017-06-25T09:33:14.821Z,536
2017-06-25T09:33:55.274Z,556
2017-06-25T09:34:35.753Z,580
2017-06-25T09:35:16.221Z,616
2017-06-25T09:35:56.677Z,708
2017-06-25T09:36:37.168Z,1024
2017-06-25T09:37:17.643Z,1532
2017-06-25T09:37:58.091Z,2364